createdAt,value
2018-11-29T00:01:11.382Z,3.50
2018-11-29T00:03:39.768Z,3.60
2018-11-29T00:06:08.127Z,3.60
2018-11-29T00:08:36.493Z,3.60
2018-11-29T00:11:05.394Z,3.60
2018-11-29T00:13:33.797Z,3.60
2018-11-29T00:16:02.188Z,3.60
2018-11-29T00:18:30.579Z,3.60
2018-11-29T00:20:58.933Z,3.60
2018-11-29T00:23:27.254Z,3.70
2018-11-29T00:25:55.656Z,3.70
2018-11-29T00:28:24.009Z,3.70
2018-11-29T00:30:52.338Z,3.80
2018-11-29T00:33:20.649Z,3.70
2018-11-29T00:35:48.985Z,3.60
2018-11-29T00:38:17.405Z,3.70
2018-11-29T00:40:45.748Z,3.70
2018-11-29T00:43:14.102Z,3.70
2018-11-29T00:45:42.551Z,3.70
2018-11-29T00:48:10.855Z,3.70
2018-11-29T00:50:39.317Z,3.60
2018-11-29T00:53:07.784Z,3.70
2018-11-29T00:55:36.140Z,3.70
2018-11-29T00:58:04.555Z,3.60
2018-11-29T01:00:32.902Z,3.70
2018-11-29T01:03:01.232Z,3.70
2018-11-29T01:05:29.592Z,3.70
2018-11-29T01:07:58.077Z,3.70
2018-11-29T01:10:26.437Z,3.70
2018-11-29T01:12:54.852Z,3.80
2018-11-29T01:15:23.356Z,3.70
2018-11-29T01:17:51.749Z,3.70
2018-11-29T01:20:20.959Z,3.60
2018-11-29T01:22:49.416Z,3.70
2018-11-29T01:25:17.929Z,3.70
2018-11-29T01:27:49.088Z,3.70
2018-11-29T01:30:18.383Z,3.60
2018-11-29T01:32:46.773Z,3.60
2018-11-29T01:35:16.187Z,3.70
2018-11-29T01:37:44.530Z,3.80
2018-11-29T01:40:19.164Z,3.80
2018-11-29T01:42:57.059Z,3.80
2018-11-29T01:45:25.831Z,3.70
2018-11-29T01:47:54.177Z,3.70
2018-11-29T01:50:22.548Z,3.70
2018-11-29T01:52:50.893Z,3.70
2018-11-29T01:55:19.281Z,3.70
2018-11-29T01:57:47.604Z,3.50
2018-11-29T02:00:17.388Z,3.60
2018-11-29T02:02:47.710Z,3.60
2018-11-29T02:05:16.101Z,3.60
2018-11-29T02:07:44.446Z,3.60
2018-11-29T02:10:19.261Z,3.60
2018-11-29T02:12:47.627Z,3.60
2018-11-29T02:15:16.019Z,3.70
2018-11-29T02:17:44.417Z,3.70
2018-11-29T02:20:15.647Z,3.90
2018-11-29T02:22:44.101Z,3.90
2018-11-29T02:25:12.705Z,4.00
2018-11-29T02:27:41.049Z,4.10
2018-11-29T02:30:11.461Z,4.00
2018-11-29T02:32:39.857Z,4.00
2018-11-29T02:35:08.485Z,4.00
2018-11-29T02:37:36.898Z,3.90
2018-11-29T02:40:08.036Z,3.80
2018-11-29T02:42:36.438Z,3.80
2018-11-29T02:45:05.797Z,3.80
2018-11-29T02:47:34.154Z,3.90
2018-11-29T02:50:02.518Z,3.90
2018-11-29T02:52:30.893Z,3.90
2018-11-29T02:54:59.213Z,4.00
2018-11-29T02:57:27.577Z,3.90
2018-11-29T02:59:55.901Z,3.80
2018-11-29T03:02:24.355Z,3.80
2018-11-29T03:04:52.681Z,3.90
2018-11-29T03:07:21.066Z,3.80
2018-11-29T03:09:49.460Z,3.90
2018-11-29T03:12:18.032Z,3.90
2018-11-29T03:14:46.430Z,3.80
2018-11-29T03:17:14.812Z,3.80
2018-11-29T03:19:43.220Z,3.60
2018-11-29T03:22:11.556Z,3.70
2018-11-29T03:24:39.939Z,3.70
2018-11-29T03:27:08.340Z,3.80
2018-11-29T03:29:37.427Z,3.80
2018-11-29T03:32:06.128Z,3.80
2018-11-29T03:34:34.534Z,3.70
2018-11-29T03:37:02.871Z,3.80
2018-11-29T03:39:31.190Z,4.00
2018-11-29T03:41:59.544Z,3.90
2018-11-29T03:44:27.903Z,3.80
2018-11-29T03:46:56.249Z,3.80
2018-11-29T03:49:24.645Z,3.90
2018-11-29T03:51:52.992Z,3.90
2018-11-29T03:54:21.625Z,3.90
2018-11-29T03:56:50.057Z,3.90
2018-11-29T03:59:18.466Z,3.90
2018-11-29T04:01:46.827Z,3.90
2018-11-29T04:04:15.139Z,3.90
2018-11-29T04:06:43.481Z,4.00
2018-11-29T04:09:11.834Z,4.10
2018-11-29T04:11:40.189Z,4.10
2018-11-29T04:14:08.513Z,4.10
2018-11-29T04:16:36.868Z,4.10
2018-11-29T04:19:05.529Z,4.20
2018-11-29T04:21:33.885Z,4.30
2018-11-29T04:24:02.227Z,4.20
2018-11-29T04:26:30.559Z,4.30
2018-11-29T04:28:58.875Z,4.40
2018-11-29T04:31:27.261Z,4.50
2018-11-29T04:33:55.617Z,4.50
2018-11-29T04:36:24.054Z,4.40
2018-11-29T04:38:52.403Z,4.40
2018-11-29T04:41:21.344Z,4.40
2018-11-29T04:43:49.677Z,4.40
2018-11-29T04:46:51.812Z,4.30
2018-11-29T04:49:20.206Z,4.30
2018-11-29T04:51:48.581Z,4.20
2018-11-29T04:54:16.937Z,4.20
2018-11-29T04:56:45.432Z,4.30
2018-11-29T04:59:13.788Z,4.30
2018-11-29T05:01:42.133Z,4.30
2018-11-29T05:04:10.518Z,4.40
2018-11-29T05:06:38.912Z,4.50
2018-11-29T05:09:08.991Z,4.40
2018-11-29T05:11:37.746Z,4.40
2018-11-29T05:14:06.576Z,4.40
2018-11-29T05:16:34.944Z,4.50
2018-11-29T05:19:03.322Z,4.40
2018-11-29T05:21:31.656Z,4.40
2018-11-29T05:24:00.047Z,4.50
2018-11-29T05:26:28.406Z,4.50
2018-11-29T05:28:56.776Z,4.40
2018-11-29T05:31:25.276Z,4.40
2018-11-29T05:33:53.680Z,4.60
2018-11-29T05:36:22.028Z,4.50
2018-11-29T05:38:50.381Z,4.40
2018-11-29T05:41:18.804Z,4.40
2018-11-29T05:43:47.216Z,4.50
2018-11-29T05:46:15.620Z,4.20
2018-11-29T05:48:43.980Z,4.30
2018-11-29T05:51:12.349Z,4.40
2018-11-29T05:53:40.680Z,4.30
2018-11-29T05:56:09.062Z,4.40
2018-11-29T05:58:37.388Z,4.50
2018-11-29T06:01:11.272Z,4.60
2018-11-29T06:03:39.609Z,4.70
2018-11-29T06:06:08.150Z,4.60
2018-11-29T06:08:36.533Z,4.60
2018-11-29T06:11:05.140Z,4.40
2018-11-29T06:13:33.664Z,4.30
2018-11-29T06:16:02.069Z,4.30
2018-11-29T06:18:30.401Z,4.30
2018-11-29T06:20:58.808Z,4.20
2018-11-29T06:23:27.249Z,4.10
2018-11-29T06:25:55.637Z,4.00
2018-11-29T06:28:23.968Z,4.00
2018-11-29T06:30:52.385Z,4.10
2018-11-29T06:33:20.917Z,4.20
2018-11-29T06:35:49.345Z,4.10
2018-11-29T06:38:17.716Z,4.10
2018-11-29T06:40:46.028Z,4.20
2018-11-29T06:43:14.422Z,4.20
2018-11-29T06:45:42.756Z,4.10
2018-11-29T06:48:11.122Z,4.10
2018-11-29T06:50:39.469Z,4.10
2018-11-29T06:53:13.262Z,4.20
2018-11-29T06:55:41.601Z,4.30
2018-11-29T06:58:09.950Z,4.30
2018-11-29T07:00:38.342Z,4.20
2018-11-29T07:03:06.770Z,4.20
2018-11-29T07:05:35.147Z,4.10
2018-11-29T07:08:03.550Z,4.10
2018-11-29T07:10:33.910Z,4.20
2018-11-29T07:13:02.916Z,4.20
2018-11-29T07:15:31.660Z,4.20
2018-11-29T07:18:01.057Z,4.10
2018-11-29T07:20:29.455Z,4.10
2018-11-29T07:22:58.508Z,4.20
2018-11-29T07:25:26.882Z,4.20
2018-11-29T07:27:55.237Z,4.10
2018-11-29T07:30:23.604Z,4.10
2018-11-29T07:32:52.085Z,4.00
2018-11-29T07:35:20.510Z,4.00
2018-11-29T07:37:48.909Z,4.00
2018-11-29T07:40:19.295Z,4.00
2018-11-29T07:42:50.166Z,4.30
2018-11-29T07:45:20.280Z,4.20
2018-11-29T07:47:48.704Z,4.10
2018-11-29T07:50:18.265Z,4.10
2018-11-29T07:52:46.664Z,4.20
2018-11-29T07:55:16.205Z,4.10
2018-11-29T07:57:45.025Z,4.00
2018-11-29T08:00:15.647Z,4.00
2018-11-29T08:02:44.059Z,4.30
2018-11-29T08:05:13.388Z,4.30
2018-11-29T08:07:47.495Z,4.30
2018-11-29T08:10:14.573Z,4.40
2018-11-29T08:12:42.941Z,4.50
2018-11-29T08:15:12.539Z,4.60
2018-11-29T08:17:40.910Z,4.60
2018-11-29T08:20:17.988Z,4.70
2018-11-29T08:22:46.389Z,4.60
2018-11-29T08:25:14.760Z,4.60
2018-11-29T08:27:43.228Z,4.50
2018-11-29T08:30:13.718Z,4.50
2018-11-29T08:32:42.144Z,4.50
2018-11-29T08:35:11.439Z,4.70
2018-11-29T08:37:40.896Z,4.60
2018-11-29T08:40:11.960Z,4.60
2018-11-29T08:42:40.294Z,4.40
2018-11-29T08:45:09.967Z,4.80
2018-11-29T08:47:38.386Z,5.00
2018-11-29T08:50:12.058Z,4.80
2018-11-29T08:52:41.255Z,4.70
2018-11-29T08:55:13.608Z,4.70
2018-11-29T08:57:42.013Z,4.80
2018-11-29T09:00:11.921Z,4.70
2018-11-29T09:02:40.396Z,4.90
2018-11-29T09:05:09.840Z,5.10
2018-11-29T09:07:38.230Z,4.70
2018-11-29T09:10:11.670Z,4.50
2018-11-29T09:12:40.040Z,4.60
2018-11-29T09:15:12.485Z,4.40
2018-11-29T09:17:40.964Z,4.50
2018-11-29T09:20:13.677Z,4.50
2018-11-29T09:22:42.155Z,4.60
2018-11-29T09:25:12.592Z,4.80
2018-11-29T09:27:41.198Z,5.00
2018-11-29T09:30:18.793Z,5.10
2018-11-29T09:32:48.033Z,5.00
2018-11-29T09:35:16.501Z,5.00
2018-11-29T09:37:45.573Z,4.90
2018-11-29T09:40:15.780Z,5.40
2018-11-29T09:42:44.455Z,5.60
2018-11-29T09:47:38.645Z,6.60
2018-11-29T09:50:10.214Z,7.00
2018-11-29T09:52:39.361Z,6.90
2018-11-29T09:55:08.916Z,6.80
2018-11-29T09:57:37.296Z,6.50
2018-11-29T10:00:12.197Z,6.60
2018-11-29T10:02:40.687Z,6.90
2018-11-29T10:05:10.177Z,7.20
2018-11-29T10:07:39.058Z,6.80
2018-11-29T10:10:09.313Z,7.30
2018-11-29T10:12:37.712Z,7.70
2018-11-29T10:15:10.494Z,7.70
2018-11-29T10:17:38.893Z,7.30
2018-11-29T10:20:11.629Z,6.80
2018-11-29T10:22:40.710Z,6.20
2018-11-29T10:25:14.118Z,6.10
2018-11-29T10:27:47.350Z,6.10
2018-11-29T10:30:19.065Z,6.00
2018-11-29T10:32:47.984Z,6.10
2018-11-29T10:35:16.387Z,5.70
2018-11-29T10:37:44.696Z,5.70
2018-11-29T10:40:13.084Z,5.90
2018-11-29T10:42:41.473Z,5.80
2018-11-29T10:45:18.745Z,5.80
2018-11-29T10:47:52.528Z,5.70
2018-11-29T10:50:18.011Z,5.70
2018-11-29T10:52:46.369Z,5.60
2018-11-29T10:55:15.888Z,5.30
2018-11-29T10:57:44.300Z,5.20
2018-11-29T11:00:21.625Z,5.20
2018-11-29T11:02:55.524Z,5.40
2018-11-29T11:05:23.872Z,5.50
2018-11-29T11:07:52.502Z,5.60
2018-11-29T11:10:20.877Z,5.60
2018-11-29T11:12:49.266Z,5.60
2018-11-29T11:15:17.628Z,5.70
2018-11-29T11:17:45.935Z,5.80
2018-11-29T11:20:14.339Z,5.80
2018-11-29T11:22:42.694Z,6.10
2018-11-29T11:25:11.708Z,6.30
2018-11-29T11:27:40.110Z,6.10
2018-11-29T11:30:16.554Z,5.80
2018-11-29T11:32:46.081Z,5.70
2018-11-29T11:35:14.641Z,5.70
2018-11-29T11:37:43.007Z,6.00
2018-11-29T11:40:13.479Z,6.10
2018-11-29T11:42:41.851Z,6.30
2018-11-29T11:45:12.359Z,6.20
2018-11-29T11:47:40.685Z,6.20
2018-11-29T11:50:12.797Z,6.20
2018-11-29T11:52:41.138Z,6.40
2018-11-29T11:55:10.200Z,6.70
2018-11-29T11:57:38.663Z,6.80
2018-11-29T12:00:14.414Z,6.90
2018-11-29T12:02:43.348Z,6.80
2018-11-29T12:05:11.860Z,6.90
2018-11-29T12:07:40.308Z,7.10
2018-11-29T12:10:13.867Z,7.10
2018-11-29T12:12:42.223Z,6.80
2018-11-29T12:15:12.550Z,6.80
2018-11-29T12:17:41.312Z,6.80
2018-11-29T12:20:12.889Z,6.70
2018-11-29T12:22:41.274Z,6.70
2018-11-29T12:25:12.509Z,6.60
2018-11-29T12:27:40.883Z,6.60
2018-11-29T12:30:28.284Z,6.70
2018-11-29T12:32:57.851Z,6.60
2018-11-29T12:35:26.192Z,6.50
2018-11-29T12:37:54.592Z,6.40
2018-11-29T12:40:22.968Z,6.50
2018-11-29T12:42:51.367Z,6.60
2018-11-29T12:45:20.342Z,6.70
2018-11-29T12:47:48.690Z,6.70
2018-11-29T12:50:18.989Z,6.60
2018-11-29T12:52:47.360Z,6.60
2018-11-29T12:55:17.105Z,6.40
2018-11-29T12:57:45.607Z,6.40
2018-11-29T13:00:18.023Z,6.40
2018-11-29T13:02:47.489Z,6.40
2018-11-29T13:05:15.869Z,6.50
2018-11-29T13:07:44.345Z,6.40
2018-11-29T13:10:14.349Z,6.30
2018-11-29T13:12:42.816Z,6.40
2018-11-29T13:15:13.575Z,6.60
2018-11-29T13:17:41.889Z,6.80
2018-11-29T13:20:14.211Z,6.90
2018-11-29T13:22:42.561Z,6.80
2018-11-29T13:25:13.997Z,6.70
2018-11-29T13:27:42.413Z,6.50
2018-11-29T13:30:15.889Z,6.40
2018-11-29T13:32:44.406Z,6.60
2018-11-29T13:35:17.621Z,6.50
2018-11-29T13:37:52.191Z,6.60
2018-11-29T13:40:20.631Z,6.50
2018-11-29T13:42:48.982Z,6.60
2018-11-29T13:45:17.365Z,6.70
2018-11-29T13:47:45.759Z,6.80
2018-11-29T13:50:14.877Z,6.70
2018-11-29T13:52:43.471Z,6.60
2018-11-29T13:55:12.931Z,6.50
2018-11-29T13:57:42.586Z,6.60
2018-11-29T14:00:15.997Z,6.50
2018-11-29T14:02:47.030Z,6.50
2018-11-29T14:05:13.417Z,6.40
2018-11-29T14:07:41.765Z,6.20
2018-11-29T14:10:15.127Z,6.20
2018-11-29T14:12:44.123Z,6.10
2018-11-29T14:15:15.483Z,6.20
2018-11-29T14:17:43.847Z,6.20
2018-11-29T14:20:14.186Z,6.40
2018-11-29T14:22:42.589Z,6.50
2018-11-29T14:25:15.972Z,6.50
2018-11-29T14:27:45.646Z,6.40
2018-11-29T14:30:20.051Z,6.40
2018-11-29T14:32:48.589Z,6.40
2018-11-29T14:35:16.953Z,6.30
2018-11-29T14:37:45.345Z,6.30
2018-11-29T14:40:15.740Z,6.40
2018-11-29T14:42:44.103Z,6.40
2018-11-29T14:45:13.662Z,6.50
2018-11-29T14:47:42.029Z,6.60
2018-11-29T14:50:20.492Z,6.60
2018-11-29T14:52:48.888Z,6.50
2018-11-29T14:55:17.270Z,6.30
2018-11-29T14:57:45.656Z,6.40
2018-11-29T15:00:15.901Z,6.40
2018-11-29T15:02:44.335Z,6.50
2018-11-29T15:05:21.893Z,6.40
2018-11-29T15:07:50.361Z,6.30
2018-11-29T15:10:18.677Z,6.20
2018-11-29T15:12:47.076Z,6.40
2018-11-29T15:15:15.430Z,6.40
2018-11-29T15:17:44.682Z,6.20
2018-11-29T15:20:27.277Z,6.20
2018-11-29T15:22:55.016Z,6.40
2018-11-29T15:25:23.358Z,6.50
2018-11-29T15:27:52.156Z,6.50
2018-11-29T15:30:21.646Z,6.50
2018-11-29T15:32:50.132Z,6.70
2018-11-29T15:35:18.529Z,6.60
2018-11-29T15:37:46.921Z,6.70
2018-11-29T15:40:16.428Z,6.50
2018-11-29T15:42:44.874Z,6.40
2018-11-29T15:45:18.644Z,6.60
2018-11-29T15:47:47.025Z,6.60
2018-11-29T15:50:15.880Z,6.40
2018-11-29T15:52:44.231Z,6.60
2018-11-29T15:55:13.996Z,6.60
2018-11-29T15:57:42.386Z,6.40
2018-11-29T16:00:25.960Z,6.40
2018-11-29T16:02:55.353Z,6.50
2018-11-29T16:05:23.683Z,6.50
2018-11-29T16:07:52.000Z,6.50
2018-11-29T16:10:21.616Z,6.50
2018-11-29T16:12:56.715Z,6.40
2018-11-29T16:15:25.070Z,6.50
2018-11-29T16:17:53.672Z,6.50
2018-11-29T16:20:24.291Z,6.50
2018-11-29T16:22:52.774Z,6.50
2018-11-29T16:25:21.473Z,6.40
2018-11-29T16:27:50.016Z,6.40
2018-11-29T16:30:21.285Z,6.40
2018-11-29T16:32:49.766Z,6.30
2018-11-29T16:35:18.080Z,6.20
2018-11-29T16:37:46.452Z,6.30
2018-11-29T16:40:14.842Z,6.30
2018-11-29T16:42:43.260Z,6.30
2018-11-29T16:45:13.010Z,6.20
2018-11-29T16:47:41.914Z,6.30
2018-11-29T16:50:13.293Z,6.20
2018-11-29T16:52:41.688Z,6.40
2018-11-29T16:55:11.185Z,6.40
2018-11-29T16:57:40.940Z,6.50
2018-11-29T17:00:13.896Z,6.40
2018-11-29T17:02:42.243Z,6.40
2018-11-29T17:05:12.180Z,6.50
2018-11-29T17:07:40.572Z,6.50
2018-11-29T17:10:10.663Z,6.50
2018-11-29T17:12:39.145Z,6.50
2018-11-29T17:15:14.688Z,6.50
2018-11-29T17:17:43.036Z,6.50
2018-11-29T17:20:16.493Z,6.40
2018-11-29T17:22:45.990Z,6.40
2018-11-29T17:25:14.397Z,6.50
2018-11-29T17:27:42.837Z,6.50
2018-11-29T17:30:19.583Z,6.60
2018-11-29T17:32:48.504Z,6.60
2018-11-29T17:35:16.862Z,6.50
2018-11-29T17:37:45.252Z,6.60
2018-11-29T17:40:14.758Z,6.60
2018-11-29T17:42:43.140Z,6.60
2018-11-29T17:45:12.704Z,6.60
2018-11-29T17:47:42.081Z,6.60
2018-11-29T17:50:16.112Z,6.50
2018-11-29T17:52:44.487Z,6.50
2018-11-29T17:55:12.860Z,6.50
2018-11-29T17:57:41.292Z,6.50
2018-11-29T18:00:13.541Z,6.50
2018-11-29T18:02:41.969Z,6.40
2018-11-29T18:05:10.335Z,6.50
2018-11-29T18:07:38.671Z,6.50
2018-11-29T18:10:11.238Z,6.50
2018-11-29T18:12:39.605Z,6.50
2018-11-29T18:15:11.182Z,6.50
2018-11-29T18:17:39.551Z,6.40
2018-11-29T18:20:09.778Z,6.40
2018-11-29T18:22:38.160Z,6.40
2018-11-29T18:25:09.485Z,6.40
2018-11-29T18:27:37.989Z,6.30
2018-11-29T18:30:11.298Z,6.30
2018-11-29T18:32:40.202Z,6.30
2018-11-29T18:35:09.576Z,6.30
2018-11-29T18:37:38.042Z,6.20
2018-11-29T18:40:21.453Z,6.20
2018-11-29T18:42:53.231Z,6.10
2018-11-29T18:45:21.668Z,6.10
2018-11-29T18:47:51.262Z,6.20
2018-11-29T18:50:21.724Z,6.20
2018-11-29T18:52:50.377Z,6.10
2018-11-29T18:55:19.009Z,6.20
2018-11-29T18:57:47.353Z,6.10
2018-11-29T19:00:25.510Z,6.10
2018-11-29T19:02:56.945Z,6.10
2018-11-29T19:05:22.366Z,6.10
2018-11-29T19:07:51.145Z,6.10
2018-11-29T19:10:19.846Z,6.10
2018-11-29T19:12:50.005Z,6.10
2018-11-29T19:15:18.405Z,6.00
2018-11-29T19:17:46.786Z,6.00
2018-11-29T19:20:15.255Z,6.10
2018-11-29T19:22:43.664Z,6.00
2018-11-29T19:25:15.382Z,6.00
2018-11-29T19:27:43.820Z,6.00
2018-11-29T19:30:16.643Z,6.10
2018-11-29T19:32:46.583Z,6.10
2018-11-29T19:35:15.037Z,6.00
2018-11-29T19:37:43.509Z,6.10
2018-11-29T19:40:15.638Z,6.10
2018-11-29T19:42:44.041Z,6.00
2018-11-29T19:45:15.305Z,5.90
2018-11-29T19:47:43.879Z,6.00
2018-11-29T19:50:21.180Z,5.90
2018-11-29T19:52:53.989Z,5.90
2018-11-29T19:55:27.387Z,5.90
2018-11-29T19:57:55.891Z,6.00
2018-11-29T20:00:24.327Z,5.90
2018-11-29T20:02:54.135Z,5.80
2018-11-29T20:05:22.638Z,5.90
2018-11-29T20:07:51.218Z,5.80
2018-11-29T20:10:19.917Z,5.90
2018-11-29T20:12:54.077Z,5.90
2018-11-29T20:15:22.660Z,5.90
2018-11-29T20:17:51.055Z,5.80
2018-11-29T20:20:20.139Z,5.90
2018-11-29T20:22:48.593Z,5.80
2018-11-29T20:25:18.600Z,5.80
2018-11-29T20:27:47.162Z,5.70
2018-11-29T20:30:16.703Z,5.70
2018-11-29T20:32:45.463Z,5.80
2018-11-29T20:35:14.116Z,5.80
2018-11-29T20:37:42.636Z,5.70
2018-11-29T20:40:27.891Z,5.70
2018-11-29T20:42:59.351Z,5.70
2018-11-29T20:45:30.308Z,5.70
2018-11-29T20:47:58.888Z,5.60
2018-11-29T20:50:28.846Z,5.60
2018-11-29T20:52:58.883Z,5.60
2018-11-29T20:55:28.676Z,5.60
2018-11-29T20:57:57.087Z,5.60
2018-11-29T21:00:25.794Z,5.60
2018-11-29T21:02:54.256Z,5.60
2018-11-29T21:05:23.724Z,5.50
2018-11-29T21:07:54.659Z,5.50
2018-11-29T21:10:25.859Z,5.50
2018-11-29T21:12:54.516Z,5.50
2018-11-29T21:15:22.958Z,5.50
2018-11-29T21:17:51.462Z,5.50
2018-11-29T21:20:20.926Z,5.50
2018-11-29T21:22:50.689Z,5.50
2018-11-29T21:25:20.895Z,5.50
2018-11-29T21:27:49.264Z,5.40
2018-11-29T21:30:17.736Z,5.40
2018-11-29T21:32:46.715Z,5.30
2018-11-29T21:35:16.711Z,5.40
2018-11-29T21:37:45.228Z,5.40
2018-11-29T21:40:18.614Z,5.30
2018-11-29T21:42:48.166Z,5.30
2018-11-29T21:45:17.129Z,5.30
2018-11-29T21:47:45.606Z,5.30
2018-11-29T21:50:14.074Z,5.40
2018-11-29T21:52:42.626Z,5.40
2018-11-29T21:55:11.670Z,5.40
2018-11-29T21:57:40.097Z,5.40
2018-11-29T22:00:13.014Z,5.30
2018-11-29T22:02:43.237Z,5.20
2018-11-29T22:05:11.759Z,5.20
2018-11-29T22:07:40.350Z,5.20
2018-11-29T22:10:08.780Z,5.20
2018-11-29T22:12:37.220Z,5.20
2018-11-29T22:15:07.975Z,5.10
2018-11-29T22:17:39.764Z,5.10
2018-11-29T22:20:08.329Z,5.20
2018-11-29T22:22:41.112Z,5.20
2018-11-29T22:25:09.521Z,5.10
2018-11-29T22:27:38.123Z,5.20
2018-11-29T22:30:07.808Z,5.20
2018-11-29T22:32:36.549Z,5.30
2018-11-29T22:35:09.450Z,5.20
2018-11-29T22:37:38.095Z,5.20
2018-11-29T22:40:07.742Z,5.20
2018-11-29T22:42:36.251Z,5.20
2018-11-29T22:45:05.489Z,5.10
2018-11-29T22:47:33.955Z,5.10
2018-11-29T22:50:02.415Z,5.20
2018-11-29T22:52:30.875Z,5.10
2018-11-29T22:54:59.334Z,5.10
2018-11-29T22:57:27.822Z,5.20
2018-11-29T22:59:56.274Z,5.30
2018-11-29T23:02:24.792Z,5.30
2018-11-29T23:04:53.289Z,5.30
2018-11-29T23:07:21.632Z,5.30
2018-11-29T23:09:50.103Z,5.30
2018-11-29T23:12:22.722Z,5.30
2018-11-29T23:14:51.431Z,5.30
2018-11-29T23:17:20.248Z,5.30
2018-11-29T23:19:48.738Z,5.20
2018-11-29T23:22:17.184Z,5.20
2018-11-29T23:24:45.549Z,5.20
2018-11-29T23:27:13.951Z,5.10
2018-11-29T23:29:42.394Z,5.10
2018-11-29T23:32:10.859Z,5.20
2018-11-29T23:34:39.212Z,5.20
2018-11-29T23:37:07.705Z,5.20
2018-11-29T23:39:36.078Z,5.10
2018-11-29T23:42:05.090Z,5.00
2018-11-29T23:44:33.417Z,5.10
2018-11-29T23:47:01.797Z,5.20
2018-11-29T23:49:30.136Z,5.10
2018-11-29T23:51:58.508Z,5.10
2018-11-29T23:54:26.848Z,5.10
2018-11-29T23:56:55.252Z,5.10
2018-11-29T23:59:23.649Z,5.10
